Time;durP1;ratioP1;P1;durP2;ratioP2;P2;SDS_P1;SDS_P2;PMS_P1;PMS_P2;Temp;Humidity;BMP_temperature;BMP_pressure;BME280_temperature;BME280_humidity;BME280_pressure;Samples;Min_cycle;Max_cycle;Signal;HPM_P1;HPM_P2
2024/04/16 00:00:55;;;;;;;1.13;0.68;;;;;;;;;;5384405;26;20062;-79
2024/04/16 00:03:23;;;;;;;4.70;0.65;;;;;;;;;;5383650;26;20000;-78
2024/04/16 00:05:50;;;;;;;2.15;0.70;;;;;;;;;;5383897;26;20019;-78
2024/04/16 00:08:18;;;;;;;2.95;0.77;;;;;;;;;;5384843;26;20077;-79
2024/04/16 00:10:45;;;;;;;4.15;0.80;;;;;;;;;;5383548;26;20069;-78
2024/04/16 00:13:13;;;;;;;2.97;1.00;;;;;;;;;;5385005;26;20012;-78
2024/04/16 00:15:40;;;;;;;1.85;0.90;;;;;;;;;;5384314;26;20004;-79
2024/04/16 00:18:07;;;;;;;1.95;1.00;;;;;;;;;;5385023;26;20008;-79
2024/04/16 00:20:35;;;;;;;3.63;0.88;;;;;;;;;;5383004;26;20341;-78
2024/04/16 00:23:02;;;;;;;1.55;0.90;;;;;;;;;;5383364;26;20469;-79
2024/04/16 00:25:29;;;;;;;2.42;0.70;;;;;;;;;;5382856;26;20005;-79
2024/04/16 00:27:57;;;;;;;1.58;0.82;;;;;;;;;;5384499;26;20039;-79
2024/04/16 00:30:25;;;;;;;3.00;0.80;;;;;;;;;;5382729;26;20081;-79
2024/04/16 00:32:52;;;;;;;1.17;0.93;;;;;;;;;;5384401;26;20005;-77
2024/04/16 00:35:19;;;;;;;0.85;0.57;;;;;;;;;;5382066;26;20008;-79
2024/04/16 00:37:47;;;;;;;1.48;0.70;;;;;;;;;;5382442;26;20332;-78
2024/04/16 00:40:14;;;;;;;3.15;0.98;;;;;;;;;;5383625;26;20004;-79
2024/04/16 00:42:41;;;;;;;3.63;0.68;;;;;;;;;;5384158;26;20007;-79
2024/04/16 00:45:09;;;;;;;1.77;0.80;;;;;;;;;;5384114;26;20531;-78
2024/04/16 00:47:37;;;;;;;1.27;1.08;;;;;;;;;;5384714;26;20000;-80
2024/04/16 00:50:05;;;;;;;3.33;0.80;;;;;;;;;;5382863;26;20056;-79
2024/04/16 00:52:32;;;;;;;9.48;1.65;;;;;;;;;;5386414;26;20000;-78
2024/04/16 00:54:59;;;;;;;1.25;0.80;;;;;;;;;;5380991;26;20459;-79
2024/04/16 00:57:27;;;;;;;1.60;0.90;;;;;;;;;;5384220;26;20047;-79
2024/04/16 00:59:56;;;;;;;3.20;1.30;;;;;;;;;;5384271;26;20425;-79
2024/04/16 01:02:23;;;;;;;8.00;1.67;;;;;;;;;;5382843;26;20078;-78
2024/04/16 01:04:51;;;;;;;2.75;1.55;;;;;;;;;;5382486;26;20028;-79
2024/04/16 01:07:18;;;;;;;3.25;1.17;;;;;;;;;;5382599;26;20010;-78
2024/04/16 01:09:45;;;;;;;2.05;1.55;;;;;;;;;;5384140;26;20037;-79
2024/04/16 01:12:13;;;;;;;6.95;1.63;;;;;;;;;;5384817;26;20023;-78
2024/04/16 01:14:40;;;;;;;1.77;1.23;;;;;;;;;;5382799;26;20004;-78
2024/04/16 01:17:08;;;;;;;2.05;1.40;;;;;;;;;;5383250;26;20073;-77
2024/04/16 01:19:35;;;;;;;7.40;1.80;;;;;;;;;;5384137;26;20020;-77
2024/04/16 01:22:02;;;;;;;3.78;1.50;;;;;;;;;;5383759;26;20012;-79
2024/04/16 01:24:30;;;;;;;2.47;1.92;;;;;;;;;;5383798;26;20009;-78
2024/04/16 01:26:57;;;;;;;5.78;1.67;;;;;;;;;;5383716;26;20055;-80
2024/04/16 01:29:24;;;;;;;3.67;1.40;;;;;;;;;;5383328;26;20008;-80
2024/04/16 01:31:52;;;;;;;2.67;1.20;;;;;;;;;;5384673;26;20012;-79
2024/04/16 01:34:19;;;;;;;2.00;1.65;;;;;;;;;;5385681;26;20012;-78
2024/04/16 01:36:46;;;;;;;2.97;1.30;;;;;;;;;;5387814;26;20007;-79
2024/04/16 01:39:14;;;;;;;3.80;1.25;;;;;;;;;;5385565;26;20020;-79
2024/04/16 01:41:41;;;;;;;2.17;1.10;;;;;;;;;;5385954;26;20000;-78
2024/04/16 01:44:09;;;;;;;3.28;1.20;;;;;;;;;;5388152;26;20413;-78
2024/04/16 01:46:36;;;;;;;4.57;1.00;;;;;;;;;;5385324;26;20004;-77
2024/04/16 01:49:03;;;;;;;1.23;1.05;;;;;;;;;;5379820;26;20395;-78
2024/04/16 01:51:30;;;;;;;1.35;0.85;;;;;;;;;;5379638;26;20065;-78
2024/04/16 01:53:58;;;;;;;3.47;1.13;;;;;;;;;;5381721;26;20005;-78
2024/04/16 01:56:25;;;;;;;3.83;1.17;;;;;;;;;;5381335;26;20004;-78
2024/04/16 01:58:53;;;;;;;1.27;1.17;;;;;;;;;;5380003;26;20004;-77
2024/04/16 02:01:20;;;;;;;5.63;1.15;;;;;;;;;;5381211;26;20413;-78
2024/04/16 02:03:47;;;;;;;2.33;1.25;;;;;;;;;;5379815;26;20000;-78
2024/04/16 02:06:15;;;;;;;5.95;1.63;;;;;;;;;;5381755;26;20008;-79
2024/04/16 02:08:42;;;;;;;2.70;1.17;;;;;;;;;;5379982;26;20405;-79
2024/04/16 02:11:10;;;;;;;2.45;0.95;;;;;;;;;;5381388;26;20012;-77
2024/04/16 02:13:37;;;;;;;3.30;1.17;;;;;;;;;;5381013;26;20015;-78
2024/04/16 02:16:04;;;;;;;2.85;0.73;;;;;;;;;;5380043;26;20008;-78
2024/04/16 02:18:32;;;;;;;3.63;1.20;;;;;;;;;;5379956;26;20012;-79
2024/04/16 02:20:59;;;;;;;3.10;0.80;;;;;;;;;;5380428;26;20016;-79
2024/04/16 02:23:27;;;;;;;3.00;1.10;;;;;;;;;;5381725;26;20414;-78
2024/04/16 02:25:55;;;;;;;1.95;0.80;;;;;;;;;;5382143;26;20000;-79
2024/04/16 02:28:22;;;;;;;3.47;1.10;;;;;;;;;;5385562;26;20019;-79
2024/04/16 02:30:50;;;;;;;4.28;2.00;;;;;;;;;;5385532;26;20331;-78
2024/04/16 02:33:19;;;;;;;3.03;1.35;;;;;;;;;;5384291;26;20015;-79
2024/04/16 02:35:46;;;;;;;3.92;1.63;;;;;;;;;;5385167;26;20040;-79
2024/04/16 02:38:14;;;;;;;2.42;0.90;;;;;;;;;;5382599;26;20516;-78
2024/04/16 02:40:42;;;;;;;3.13;1.00;;;;;;;;;;5385463;26;20408;-79
2024/04/16 02:43:10;;;;;;;2.30;0.90;;;;;;;;;;5385082;26;20015;-79
2024/04/16 02:45:37;;;;;;;1.88;1.02;;;;;;;;;;5383592;26;20028;-79
2024/04/16 02:48:05;;;;;;;3.58;0.68;;;;;;;;;;5382717;26;20036;-78
2024/04/16 02:50:32;;;;;;;2.13;1.05;;;;;;;;;;5383293;26;20360;-79
2024/04/16 02:52:59;;;;;;;2.10;0.80;;;;;;;;;;5383456;26;20565;-79
2024/04/16 02:55:27;;;;;;;2.90;1.05;;;;;;;;;;5384220;26;20049;-80
2024/04/16 02:57:54;;;;;;;3.53;0.82;;;;;;;;;;5383419;26;20005;-78
2024/04/16 03:00:22;;;;;;;3.17;0.85;;;;;;;;;;5385351;26;20555;-79
2024/04/16 03:02:49;;;;;;;2.08;1.02;;;;;;;;;;5385126;26;20004;-77
2024/04/16 03:05:16;;;;;;;2.08;0.80;;;;;;;;;;5383195;26;20008;-78
2024/04/16 03:07:45;;;;;;;3.67;0.70;;;;;;;;;;5382880;26;20008;-79
2024/04/16 03:10:16;;;;;;;3.00;1.00;;;;;;;;;;5383647;26;20011;-80
2024/04/16 03:12:44;;;;;;;2.95;0.70;;;;;;;;;;5383355;26;20008;-79
2024/04/16 03:15:12;;;;;;;4.35;1.08;;;;;;;;;;5384383;26;20078;-77
2024/04/16 03:17:39;;;;;;;1.73;0.90;;;;;;;;;;5381890;26;20036;-79
2024/04/16 03:20:08;;;;;;;1.02;0.57;;;;;;;;;;5381697;26;20478;-78
2024/04/16 03:22:35;;;;;;;4.10;0.75;;;;;;;;;;5380860;26;20000;-77
2024/04/16 03:25:03;;;;;;;4.10;0.70;;;;;;;;;;5382303;26;20008;-79
2024/04/16 03:27:30;;;;;;;1.40;0.63;;;;;;;;;;5382363;26;20012;-78
2024/04/16 03:29:58;;;;;;;7.00;1.10;;;;;;;;;;5381780;26;20085;-78
2024/04/16 03:32:25;;;;;;;2.78;0.88;;;;;;;;;;5384474;26;20016;-79
2024/04/16 03:34:53;;;;;;;1.90;0.90;;;;;;;;;;5383139;26;20019;-76
2024/04/16 03:37:20;;;;;;;1.30;0.90;;;;;;;;;;5383468;26;20381;-79
2024/04/16 03:39:48;;;;;;;2.63;0.88;;;;;;;;;;5384189;26;20409;-79
2024/04/16 03:42:15;;;;;;;2.55;0.63;;;;;;;;;;5382688;26;20005;-79
2024/04/16 03:44:43;;;;;;;1.98;0.93;;;;;;;;;;5385324;26;20023;-79
2024/04/16 03:47:10;;;;;;;4.40;1.08;;;;;;;;;;5384490;26;20019;-79
2024/04/16 03:49:37;;;;;;;3.65;0.93;;;;;;;;;;5385093;26;20019;-79
2024/04/16 03:52:05;;;;;;;2.40;0.70;;;;;;;;;;5384129;26;20027;-79
2024/04/16 03:54:32;;;;;;;2.53;0.75;;;;;;;;;;5382897;26;20012;-79
2024/04/16 03:57:00;;;;;;;2.60;0.95;;;;;;;;;;5382665;26;20000;-78
2024/04/16 04:02:19;;;;;;;3.97;1.20;;;;;;;;;;5383919;26;20000;-79
2024/04/16 04:04:47;;;;;;;6.22;1.10;;;;;;;;;;5382628;26;20004;-78
2024/04/16 04:07:14;;;;;;;3.78;0.90;;;;;;;;;;5384057;26;20004;-78
2024/04/16 04:09:42;;;;;;;3.78;0.70;;;;;;;;;;5382492;26;20008;-78
2024/04/16 04:12:09;;;;;;;4.68;0.93;;;;;;;;;;5384043;26;20131;-78
2024/04/16 04:14:37;;;;;;;3.38;1.10;;;;;;;;;;5381692;26;20009;-78
2024/04/16 04:17:08;;;;;;;2.67;0.75;;;;;;;;;;5382328;26;20008;-79
2024/04/16 04:19:35;;;;;;;4.30;0.93;;;;;;;;;;5382267;26;20482;-78
2024/04/16 04:22:03;;;;;;;5.38;0.90;;;;;;;;;;5383632;26;20012;-77
2024/04/16 04:24:30;;;;;;;3.83;0.98;;;;;;;;;;5381806;26;20070;-79
2024/04/16 04:27:01;;;;;;;2.97;0.70;;;;;;;;;;5382177;26;20000;-79
2024/04/16 04:29:30;;;;;;;2.20;0.63;;;;;;;;;;5382726;26;20004;-79
2024/04/16 04:31:58;;;;;;;2.95;0.80;;;;;;;;;;5384400;26;20004;-79
2024/04/16 04:34:26;;;;;;;10.55;0.90;;;;;;;;;;5383031;26;20022;-79
2024/04/16 04:36:54;;;;;;;3.60;0.60;;;;;;;;;;5383329;26;20032;-78
2024/04/16 04:39:21;;;;;;;1.55;0.63;;;;;;;;;;5383560;26;20016;-78
2024/04/16 04:41:48;;;;;;;2.55;0.50;;;;;;;;;;5384022;26;20463;-78
2024/04/16 04:44:16;;;;;;;2.28;0.70;;;;;;;;;;5382608;26;20015;-80
2024/04/16 04:46:43;;;;;;;4.40;0.70;;;;;;;;;;5382829;26;20011;-78
2024/04/16 04:49:11;;;;;;;2.53;0.93;;;;;;;;;;5380854;26;20036;-78
2024/04/16 04:51:38;;;;;;;2.97;0.60;;;;;;;;;;5381349;26;20004;-78
2024/04/16 04:54:05;;;;;;;2.05;0.82;;;;;;;;;;5381483;26;20474;-78
2024/04/16 04:56:33;;;;;;;6.97;1.20;;;;;;;;;;5380685;26;20462;-78
2024/04/16 04:59:00;;;;;;;2.97;0.77;;;;;;;;;;5380693;26;20077;-78
2024/04/16 05:01:27;;;;;;;2.45;0.45;;;;;;;;;;5381870;26;20016;-80
2024/04/16 05:03:55;;;;;;;1.98;0.70;;;;;;;;;;5383314;26;20009;-79
2024/04/16 05:06:22;;;;;;;2.00;0.70;;;;;;;;;;5381680;26;20012;-79
2024/04/16 05:08:49;;;;;;;3.00;0.70;;;;;;;;;;5382912;26;20058;-78
2024/04/16 05:11:17;;;;;;;4.47;1.20;;;;;;;;;;5383350;26;20479;-78
2024/04/16 05:13:44;;;;;;;3.17;0.95;;;;;;;;;;5382859;26;20005;-80
2024/04/16 05:16:12;;;;;;;2.78;1.00;;;;;;;;;;5380881;26;20000;-78
2024/04/16 05:18:39;;;;;;;1.75;0.70;;;;;;;;;;5381628;26;20404;-79
2024/04/16 05:21:06;;;;;;;5.20;1.15;;;;;;;;;;5383649;26;20037;-78
2024/04/16 05:23:35;;;;;;;3.63;0.57;;;;;;;;;;5381164;26;20012;-78
2024/04/16 05:26:03;;;;;;;2.78;1.10;;;;;;;;;;5380607;26;20351;-80
2024/04/16 05:28:32;;;;;;;7.25;1.25;;;;;;;;;;5381466;26;20015;-79
2024/04/16 05:31:00;;;;;;;3.28;0.90;;;;;;;;;;5380979;26;20467;-79
2024/04/16 05:33:27;;;;;;;1.48;0.60;;;;;;;;;;5381099;26;20077;-79
2024/04/16 05:35:55;;;;;;;5.53;1.17;;;;;;;;;;5382438;26;20004;-78
2024/04/16 05:38:32;;;;;;;4.82;1.02;;;;;;;;;;5381302;26;20046;-79
2024/04/16 05:40:59;;;;;;;3.05;0.98;;;;;;;;;;5382798;26;20429;-78
2024/04/16 05:43:26;;;;;;;3.45;1.10;;;;;;;;;;5382015;26;20005;-78
2024/04/16 05:45:54;;;;;;;4.40;1.10;;;;;;;;;;5382365;26;20000;-79
2024/04/16 05:48:22;;;;;;;4.68;1.10;;;;;;;;;;5380878;26;20009;-80
2024/04/16 05:50:49;;;;;;;4.20;0.95;;;;;;;;;;5382037;26;20000;-79
2024/04/16 05:53:16;;;;;;;5.85;0.93;;;;;;;;;;5381005;26;20469;-79
2024/04/16 05:55:44;;;;;;;4.22;1.10;;;;;;;;;;5380599;26;20012;-79
2024/04/16 05:58:12;;;;;;;6.65;1.13;;;;;;;;;;5380860;26;20023;-77
2024/04/16 06:00:39;;;;;;;2.30;0.65;;;;;;;;;;5383266;26;20004;-80
2024/04/16 06:03:08;;;;;;;4.07;1.20;;;;;;;;;;5380840;26;20012;-80
2024/04/16 06:05:35;;;;;;;4.25;1.17;;;;;;;;;;5383375;26;20048;-79
2024/04/16 06:08:03;;;;;;;4.43;1.48;;;;;;;;;;5381400;26;20016;-81
2024/04/16 06:10:31;;;;;;;3.30;1.13;;;;;;;;;;5382297;26;20045;-79
2024/04/16 06:12:58;;;;;;;3.92;0.80;;;;;;;;;;5380966;26;20008;-79
2024/04/16 06:15:25;;;;;;;3.88;0.90;;;;;;;;;;5382947;26;20016;-79
2024/04/16 06:17:53;;;;;;;2.65;0.60;;;;;;;;;;5382163;26;20619;-78
2024/04/16 06:20:20;;;;;;;3.15;0.88;;;;;;;;;;5382567;26;20418;-78
2024/04/16 06:22:47;;;;;;;3.15;0.70;;;;;;;;;;5382044;26;20069;-79
2024/04/16 06:25:18;;;;;;;5.57;1.10;;;;;;;;;;5381209;26;20004;-78
2024/04/16 06:27:49;;;;;;;5.15;1.20;;;;;;;;;;5379634;26;20008;-79
2024/04/16 06:30:16;;;;;;;5.90;0.88;;;;;;;;;;5380650;26;20412;-81
2024/04/16 06:32:43;;;;;;;3.97;0.80;;;;;;;;;;5382145;26;20012;-80
2024/04/16 06:35:11;;;;;;;6.63;1.08;;;;;;;;;;5380045;26;20474;-80
2024/04/16 06:37:38;;;;;;;4.03;0.90;;;;;;;;;;5382187;26;20020;-77
2024/04/16 06:40:06;;;;;;;5.93;1.15;;;;;;;;;;5380174;26;20043;-78
2024/04/16 06:42:36;;;;;;;5.40;1.27;;;;;;;;;;5379951;26;20044;-78
2024/04/16 06:45:04;;;;;;;2.60;1.35;;;;;;;;;;5380534;26;20481;-79
2024/04/16 06:47:33;;;;;;;4.57;1.48;;;;;;;;;;5382236;26;20351;-79
2024/04/16 06:50:02;;;;;;;5.75;1.20;;;;;;;;;;5379575;26;20438;-79
2024/04/16 06:52:29;;;;;;;4.65;0.90;;;;;;;;;;5382047;26;20036;-80
2024/04/16 06:54:58;;;;;;;2.35;0.90;;;;;;;;;;5381069;26;20023;-80
2024/04/16 06:57:26;;;;;;;4.78;1.02;;;;;;;;;;5381242;26;20004;-79
2024/04/16 06:59:53;;;;;;;3.50;0.88;;;;;;;;;;5381210;26;20000;-78
2024/04/16 07:02:21;;;;;;;3.35;0.70;;;;;;;;;;5382018;26;20004;-79
2024/04/16 07:04:48;;;;;;;5.18;1.20;;;;;;;;;;5378395;26;20000;-79
2024/04/16 07:07:16;;;;;;;2.92;0.90;;;;;;;;;;5379480;26;20008;-79
2024/04/16 07:09:43;;;;;;;6.63;1.48;;;;;;;;;;5379986;26;20000;-79
2024/04/16 07:12:11;;;;;;;14.38;1.92;;;;;;;;;;5379762;26;20015;-79
2024/04/16 07:14:38;;;;;;;5.63;0.90;;;;;;;;;;5383147;26;20022;-78
2024/04/16 07:17:05;;;;;;;4.88;0.80;;;;;;;;;;5385590;26;20089;-79
2024/04/16 07:19:33;;;;;;;4.47;1.10;;;;;;;;;;5382528;26;20015;-79
2024/04/16 07:22:00;;;;;;;5.93;0.90;;;;;;;;;;5384958;26;20474;-79
2024/04/16 07:24:31;;;;;;;4.30;1.00;;;;;;;;;;5383773;26;20005;-80
2024/04/16 07:26:58;;;;;;;5.00;1.20;;;;;;;;;;5383075;26;20008;-80
2024/04/16 07:29:25;;;;;;;4.57;0.98;;;;;;;;;;5385166;26;20004;-80
2024/04/16 07:31:53;;;;;;;2.50;0.93;;;;;;;;;;5384410;26;20549;-77
2024/04/16 07:34:20;;;;;;;2.88;0.88;;;;;;;;;;5385597;26;20084;-79
2024/04/16 07:36:48;;;;;;;3.75;1.40;;;;;;;;;;5386206;26;20034;-80
2024/04/16 07:39:15;;;;;;;4.88;0.95;;;;;;;;;;5385117;26;20081;-79
2024/04/16 07:41:45;;;;;;;4.72;0.80;;;;;;;;;;5382987;26;19997;-80
2024/04/16 07:44:12;;;;;;;2.92;0.70;;;;;;;;;;5383593;26;20138;-80
2024/04/16 07:46:39;;;;;;;4.18;1.02;;;;;;;;;;5383379;26;20401;-79
2024/04/16 07:49:07;;;;;;;4.13;0.57;;;;;;;;;;5384689;26;20018;-78
2024/04/16 07:51:34;;;;;;;9.68;1.20;;;;;;;;;;5384286;26;19997;-79
2024/04/16 07:54:02;;;;;;;3.22;0.70;;;;;;;;;;5381462;26;20099;-78
2024/04/16 07:56:29;;;;;;;3.20;1.00;;;;;;;;;;5381264;26;20000;-79
2024/04/16 07:58:57;;;;;;;4.70;1.15;;;;;;;;;;5381564;26;20012;-78
2024/04/16 08:01:24;;;;;;;3.00;0.60;;;;;;;;;;5382862;26;20012;-79
2024/04/16 08:03:51;;;;;;;4.82;1.20;;;;;;;;;;5385005;26;20022;-80
2024/04/16 08:06:19;;;;;;;4.30;0.70;;;;;;;;;;5386116;26;20008;-79
2024/04/16 08:08:46;;;;;;;4.25;0.93;;;;;;;;;;5387329;26;20016;-79
2024/04/16 08:11:14;;;;;;;4.82;1.17;;;;;;;;;;5386885;26;20015;-80
2024/04/16 08:13:42;;;;;;;3.47;0.95;;;;;;;;;;5385311;26;20004;-79
2024/04/16 08:16:09;;;;;;;9.68;1.75;;;;;;;;;;5386371;26;20008;-79
2024/04/16 08:18:37;;;;;;;9.27;1.30;;;;;;;;;;5385411;26;20012;-80
2024/04/16 08:21:05;;;;;;;46.38;4.32;;;;;;;;;;5384628;26;20000;-80
2024/04/16 08:23:32;;;;;;;5.80;0.93;;;;;;;;;;5386849;26;20019;-79
2024/04/16 08:26:04;;;;;;;3.08;0.85;;;;;;;;;;5386540;26;20017;-79
2024/04/16 08:28:36;;;;;;;3.35;0.90;;;;;;;;;;5386647;26;20035;-79
2024/04/16 08:31:04;;;;;;;2.88;0.98;;;;;;;;;;5385850;26;20016;-79
2024/04/16 08:33:31;;;;;;;5.47;1.05;;;;;;;;;;5385248;26;20000;-78
2024/04/16 08:35:59;;;;;;;3.50;0.82;;;;;;;;;;5382660;26;20016;-79
2024/04/16 08:38:27;;;;;;;4.78;0.82;;;;;;;;;;5382531;26;20004;-78
2024/04/16 08:40:56;;;;;;;4.45;1.08;;;;;;;;;;5382310;26;20008;-79
2024/04/16 08:43:25;;;;;;;10.77;1.33;;;;;;;;;;5384579;26;20001;-76
2024/04/16 08:45:52;;;;;;;12.63;1.55;;;;;;;;;;5384874;26;20462;-79
2024/04/16 08:48:21;;;;;;;9.05;1.20;;;;;;;;;;5384956;26;20000;-78
2024/04/16 08:50:49;;;;;;;12.07;1.80;;;;;;;;;;5383325;26;20328;-80
2024/04/16 08:53:17;;;;;;;14.40;1.65;;;;;;;;;;5382435;26;20420;-78
2024/04/16 08:55:45;;;;;;;12.25;1.83;;;;;;;;;;5384753;26;20004;-77
2024/04/16 08:58:12;;;;;;;5.05;0.80;;;;;;;;;;5384723;26;20011;-79
2024/04/16 09:00:40;;;;;;;6.90;1.30;;;;;;;;;;5384547;26;20045;-80
2024/04/16 09:03:07;;;;;;;5.07;1.00;;;;;;;;;;5383713;26;20346;-80
2024/04/16 09:05:34;;;;;;;4.18;1.08;;;;;;;;;;5385075;26;20020;-78
2024/04/16 09:08:02;;;;;;;3.15;1.10;;;;;;;;;;5385565;26;20054;-77
2024/04/16 09:10:29;;;;;;;7.40;0.90;;;;;;;;;;5392331;26;20004;-78
2024/04/16 09:12:56;;;;;;;2.17;0.68;;;;;;;;;;5378076;26;20075;-78
2024/04/16 09:15:24;;;;;;;3.35;0.73;;;;;;;;;;5382615;26;20016;-79
2024/04/16 09:17:52;;;;;;;7.38;1.45;;;;;;;;;;5382774;26;20008;-78
2024/04/16 09:20:27;;;;;;;2.65;0.77;;;;;;;;;;5383347;26;20044;-78
2024/04/16 09:22:56;;;;;;;2.67;0.93;;;;;;;;;;5383242;26;20004;-78
2024/04/16 09:25:24;;;;;;;6.43;0.77;;;;;;;;;;5381008;26;20012;-79
2024/04/16 09:27:53;;;;;;;3.28;0.80;;;;;;;;;;5381128;26;20015;-79
2024/04/16 09:30:24;;;;;;;2.33;0.70;;;;;;;;;;5382236;26;20019;-77
2024/04/16 09:33:01;;;;;;;2.25;0.50;;;;;;;;;;5382140;26;20004;-78
2024/04/16 09:35:30;;;;;;;2.25;0.70;;;;;;;;;;5379829;26;20008;-78
2024/04/16 09:38:04;;;;;;;4.82;0.88;;;;;;;;;;5379646;26;20000;-78
2024/04/16 09:40:32;;;;;;;3.22;1.27;;;;;;;;;;5382227;26;20026;-79
2024/04/16 09:43:00;;;;;;;2.42;0.60;;;;;;;;;;5380161;26;20107;-79
2024/04/16 09:45:32;;;;;;;3.67;0.80;;;;;;;;;;5383529;26;20087;-79
2024/04/16 09:48:01;;;;;;;5.05;1.00;;;;;;;;;;5382621;26;20827;-79
2024/04/16 09:50:29;;;;;;;4.00;1.00;;;;;;;;;;5382853;26;20011;-78
2024/04/16 09:52:59;;;;;;;2.05;0.70;;;;;;;;;;5382078;26;20402;-80
2024/04/16 09:55:29;;;;;;;5.80;0.80;;;;;;;;;;5382683;26;20047;-79
2024/04/16 09:57:57;;;;;;;1.65;0.80;;;;;;;;;;5380946;26;20005;-81
2024/04/16 10:00:24;;;;;;;4.68;1.00;;;;;;;;;;5382104;26;20078;-79
2024/04/16 10:02:52;;;;;;;1.90;0.68;;;;;;;;;;5380677;26;20077;-80
2024/04/16 10:05:19;;;;;;;1.95;0.77;;;;;;;;;;5383042;26;20011;-80
2024/04/16 10:07:48;;;;;;;3.15;0.70;;;;;;;;;;5378658;26;20020;-80
2024/04/16 10:10:16;;;;;;;2.33;0.77;;;;;;;;;;5382170;26;20455;-79
2024/04/16 10:12:43;;;;;;;2.22;0.80;;;;;;;;;;5380369;26;20008;-80
2024/04/16 10:15:13;;;;;;;3.17;0.68;;;;;;;;;;5381576;26;20012;-79
2024/04/16 10:17:55;;;;;;;1.58;0.60;;;;;;;;;;5379831;26;20012;-78
2024/04/16 10:20:28;;;;;;;1.80;0.60;;;;;;;;;;5379697;26;20012;-79
2024/04/16 10:23:02;;;;;;;2.22;0.70;;;;;;;;;;5382022;26;20491;-80
2024/04/16 10:25:34;;;;;;;6.57;0.93;;;;;;;;;;5380370;26;20077;-78
2024/04/16 10:28:03;;;;;;;1.88;0.80;;;;;;;;;;5378917;26;20004;-79
2024/04/16 10:30:31;;;;;;;4.65;0.93;;;;;;;;;;5381450;26;20389;-79
2024/04/16 10:32:59;;;;;;;3.05;0.90;;;;;;;;;;5380051;26;20082;-79
2024/04/16 10:35:27;;;;;;;3.72;0.65;;;;;;;;;;5379431;26;20535;-78
2024/04/16 10:37:56;;;;;;;3.72;0.63;;;;;;;;;;5381800;26;20077;-79
2024/04/16 10:40:27;;;;;;;1.85;0.60;;;;;;;;;;5379822;26;20044;-79
2024/04/16 10:42:58;;;;;;;2.47;0.50;;;;;;;;;;5382159;26;20066;-80
2024/04/16 10:45:28;;;;;;;3.65;0.82;;;;;;;;;;5381140;26;20000;-80
2024/04/16 10:47:56;;;;;;;1.90;0.63;;;;;;;;;;5384686;26;20022;-80
2024/04/16 10:50:23;;;;;;;2.65;0.60;;;;;;;;;;5385858;26;20004;-80
2024/04/16 10:52:51;;;;;;;1.98;0.45;;;;;;;;;;5385340;26;20377;-80
2024/04/16 10:55:18;;;;;;;1.17;0.55;;;;;;;;;;5385795;26;20004;-80
2024/04/16 10:57:46;;;;;;;1.90;0.70;;;;;;;;;;5383544;26;20008;-78
2024/04/16 11:00:14;;;;;;;1.73;0.70;;;;;;;;;;5384008;26;20085;-78
2024/04/16 11:02:41;;;;;;;2.55;0.80;;;;;;;;;;5382163;26;20001;-78
2024/04/16 11:05:09;;;;;;;3.22;0.80;;;;;;;;;;5383892;26;20384;-78
2024/04/16 11:07:37;;;;;;;2.05;0.90;;;;;;;;;;5382519;26;20039;-78
2024/04/16 11:10:05;;;;;;;1.35;0.60;;;;;;;;;;5382119;26;20015;-78
2024/04/16 11:12:34;;;;;;;3.15;0.60;;;;;;;;;;5384004;26;20005;-79
2024/04/16 11:15:02;;;;;;;2.45;0.55;;;;;;;;;;5382958;26;20016;-78
2024/04/16 11:17:29;;;;;;;9.35;0.98;;;;;;;;;;5382326;26;20004;-78
2024/04/16 11:19:57;;;;;;;4.63;0.73;;;;;;;;;;5383954;26;20016;-80
2024/04/16 11:22:25;;;;;;;0.88;0.55;;;;;;;;;;5384231;26;20005;-79
2024/04/16 11:24:53;;;;;;;2.53;0.73;;;;;;;;;;5382263;26;20000;-78
2024/04/16 11:27:23;;;;;;;2.47;0.82;;;;;;;;;;5383952;26;20020;-79
2024/04/16 11:29:52;;;;;;;2.17;0.50;;;;;;;;;;5384255;26;20364;-79
2024/04/16 11:32:20;;;;;;;2.10;0.70;;;;;;;;;;5382367;26;20016;-79
2024/04/16 11:34:48;;;;;;;2.70;0.32;;;;;;;;;;5383724;26;20032;-79
2024/04/16 11:37:17;;;;;;;6.18;1.00;;;;;;;;;;5383887;26;20082;-77
2024/04/16 11:39:45;;;;;;;1.67;0.70;;;;;;;;;;5384135;26;20016;-78
2024/04/16 11:42:12;;;;;;;2.47;0.45;;;;;;;;;;5383997;26;20016;-78
2024/04/16 11:44:40;;;;;;;2.13;0.52;;;;;;;;;;5382052;26;20012;-79
2024/04/16 11:47:10;;;;;;;0.73;0.70;;;;;;;;;;5381992;26;20028;-81
2024/04/16 11:49:38;;;;;;;1.00;0.35;;;;;;;;;;5384014;26;20011;-80
2024/04/16 11:52:06;;;;;;;6.55;0.40;;;;;;;;;;5382191;26;20004;-79
2024/04/16 11:54:35;;;;;;;0.93;0.40;;;;;;;;;;5382615;26;20001;-80
2024/04/16 11:57:03;;;;;;;1.20;0.40;;;;;;;;;;5383628;26;20004;-78
2024/04/16 11:59:31;;;;;;;3.83;0.70;;;;;;;;;;5383429;26;20347;-80
2024/04/16 12:01:59;;;;;;;0.75;0.35;;;;;;;;;;5384370;26;20008;-79
2024/04/16 12:04:26;;;;;;;1.05;0.38;;;;;;;;;;5383799;26;20078;-78
2024/04/16 12:06:55;;;;;;;0.40;0.32;;;;;;;;;;5384557;26;20008;-79
2024/04/16 12:09:22;;;;;;;0.30;0.30;;;;;;;;;;5383449;26;20016;-79
2024/04/16 12:11:50;;;;;;;0.60;0.20;;;;;;;;;;5380291;26;20032;-80
2024/04/16 12:14:19;;;;;;;2.65;0.40;;;;;;;;;;5382378;26;20082;-80
2024/04/16 12:16:48;;;;;;;1.33;0.30;;;;;;;;;;5382967;26;20023;-80
2024/04/16 12:19:16;;;;;;;1.00;0.20;;;;;;;;;;5384310;26;20015;-80
2024/04/16 12:21:43;;;;;;;1.60;0.40;;;;;;;;;;5382825;26;20023;-80
2024/04/16 12:24:10;;;;;;;0.73;0.30;;;;;;;;;;5383381;26;20032;-80
2024/04/16 12:26:38;;;;;;;0.63;0.30;;;;;;;;;;5384165;26;20077;-81
2024/04/16 12:29:06;;;;;;;0.20;0.20;;;;;;;;;;5382168;26;20016;-79
2024/04/16 12:31:33;;;;;;;0.45;0.20;;;;;;;;;;5383027;26;20327;-79
2024/04/16 12:34:01;;;;;;;0.10;0.10;;;;;;;;;;5380993;26;20516;-79
2024/04/16 12:36:30;;;;;;;1.98;0.10;;;;;;;;;;5380788;26;20008;-78
2024/04/16 12:38:57;;;;;;;0.28;0.10;;;;;;;;;;5382812;26;20012;-79
2024/04/16 12:41:25;;;;;;;0.30;0.28;;;;;;;;;;5382664;26;20001;-77
2024/04/16 12:43:53;;;;;;;0.10;0.10;;;;;;;;;;5381817;26;20077;-77
2024/04/16 12:46:20;;;;;;;0.38;0.00;;;;;;;;;;5381655;26;20032;-77
2024/04/16 12:48:50;;;;;;;0.30;0.08;;;;;;;;;;5387415;26;20012;-79
2024/04/16 12:51:17;;;;;;;0.15;0.08;;;;;;;;;;5387519;26;20481;-79
2024/04/16 12:53:44;;;;;;;0.10;0.10;;;;;;;;;;5392477;26;20015;-78
2024/04/16 12:56:12;;;;;;;0.10;0.00;;;;;;;;;;5385164;26;20004;-79
2024/04/16 12:58:40;;;;;;;0.22;0.10;;;;;;;;;;5384787;26;20004;-79
2024/04/16 13:01:07;;;;;;;1.45;0.20;;;;;;;;;;5383102;26;20009;-80
2024/04/16 13:03:35;;;;;;;0.22;0.22;;;;;;;;;;5382673;26;20081;-79
2024/04/16 13:06:02;;;;;;;0.10;0.10;;;;;;;;;;5381670;26;20011;-77
2024/04/16 13:08:30;;;;;;;0.20;0.00;;;;;;;;;;5383846;26;19997;-78
2024/04/16 13:10:57;;;;;;;0.20;0.20;;;;;;;;;;5380601;26;20024;-79
2024/04/16 13:13:25;;;;;;;0.30;0.30;;;;;;;;;;5384327;26;20000;-79
2024/04/16 13:15:54;;;;;;;0.20;0.20;;;;;;;;;;5382356;26;20015;-80
2024/04/16 13:18:21;;;;;;;0.38;0.10;;;;;;;;;;5383269;26;20055;-79
2024/04/16 13:20:55;;;;;;;1.05;0.65;;;;;;;;;;5381741;26;20008;-79
2024/04/16 13:23:23;;;;;;;0.20;0.20;;;;;;;;;;5381672;26;20012;-79
2024/04/16 13:25:51;;;;;;;0.10;0.10;;;;;;;;;;5382558;26;20078;-79
2024/04/16 13:28:20;;;;;;;0.10;0.10;;;;;;;;;;5383256;26;20010;-80
2024/04/16 13:30:54;;;;;;;0.15;0.15;;;;;;;;;;5383652;26;20366;-79
2024/04/16 13:33:21;;;;;;;0.10;0.10;;;;;;;;;;5384422;26;20337;-80
2024/04/16 13:35:50;;;;;;;2.95;0.30;;;;;;;;;;5382838;26;20008;-79
2024/04/16 13:38:18;;;;;;;0.13;0.13;;;;;;;;;;5381398;26;20079;-76
2024/04/16 13:40:46;;;;;;;0.85;0.17;;;;;;;;;;5380728;26;20077;-79
2024/04/16 13:43:15;;;;;;;1.58;0.20;;;;;;;;;;5381458;26;20004;-78
2024/04/16 13:45:42;;;;;;;1.33;0.65;;;;;;;;;;5381335;26;20504;-78
2024/04/16 13:48:10;;;;;;;0.70;0.20;;;;;;;;;;5385697;26;20000;-80
2024/04/16 13:50:44;;;;;;;0.20;0.20;;;;;;;;;;5386548;26;20008;-80
2024/04/16 13:53:11;;;;;;;1.33;0.75;;;;;;;;;;5390889;26;20015;-81
2024/04/16 13:55:39;;;;;;;3.67;2.65;;;;;;;;;;5390672;26;20008;-81
2024/04/16 13:58:07;;;;;;;2.03;1.20;;;;;;;;;;5389361;26;20004;-81
2024/04/16 14:00:34;;;;;;;0.43;0.43;;;;;;;;;;5390127;26;20410;-81
2024/04/16 14:03:05;;;;;;;1.08;0.93;;;;;;;;;;5381957;26;20048;-80
2024/04/16 14:05:32;;;;;;;1.38;1.20;;;;;;;;;;5380934;26;20466;-80
2024/04/16 14:07:59;;;;;;;0.90;0.90;;;;;;;;;;5381838;26;20008;-80
2024/04/16 14:10:27;;;;;;;1.00;0.38;;;;;;;;;;5383768;26;20054;-79
2024/04/16 14:12:54;;;;;;;0.43;0.43;;;;;;;;;;5382013;26;20008;-79
2024/04/16 14:15:21;;;;;;;0.68;0.60;;;;;;;;;;5380603;26;20012;-80
2024/04/16 14:17:51;;;;;;;0.77;0.77;;;;;;;;;;5379380;26;20354;-79
2024/04/16 14:20:18;;;;;;;0.50;0.50;;;;;;;;;;5380415;26;20160;-80
2024/04/16 14:22:45;;;;;;;0.30;0.30;;;;;;;;;;5387422;26;20085;-80
2024/04/16 14:25:13;;;;;;;1.63;0.25;;;;;;;;;;5388877;26;20438;-80
2024/04/16 14:27:40;;;;;;;0.57;0.20;;;;;;;;;;5387830;26;20016;-80
2024/04/16 14:30:08;;;;;;;2.83;0.43;;;;;;;;;;5389261;26;20000;-81
2024/04/16 14:32:36;;;;;;;2.28;2.17;;;;;;;;;;5389960;26;20019;-81
2024/04/16 14:35:04;;;;;;;0.65;0.40;;;;;;;;;;5393136;26;20011;-80
2024/04/16 14:37:31;;;;;;;0.93;0.60;;;;;;;;;;5391799;26;20062;-81
2024/04/16 14:39:59;;;;;;;0.82;0.60;;;;;;;;;;5390327;26;20015;-80
2024/04/16 14:42:26;;;;;;;1.88;0.40;;;;;;;;;;5391363;26;20008;-82
2024/04/16 14:44:54;;;;;;;0.90;0.88;;;;;;;;;;5397869;26;20008;-80
2024/04/16 14:47:21;;;;;;;1.02;0.20;;;;;;;;;;5392549;26;20020;-81
2024/04/16 14:49:48;;;;;;;0.20;0.20;;;;;;;;;;5393340;26;20004;-79